Time;durP1;ratioP1;P1;durP2;ratioP2;P2;SDS_P1;SDS_P2;PMS_P1;PMS_P2;Temp;Humidity;BMP_temperature;BMP_pressure;BME280_temperature;BME280_humidity;BME280_pressure;Samples;Min_cycle;Max_cycle;Signal;HPM_P1;HPM_P2
2023/05/17 00:01:58;;;;;;;2.08;1.02;;;;;;;29.59;29.00;100957.59;7396058;19;20023;-78
2023/05/17 00:04:24;;;;;;;1.98;0.60;;;;;;;29.53;29.67;100942.72;7402754;19;20052;-78
2023/05/17 00:06:50;;;;;;;0.63;0.63;;;;;;;29.33;29.86;100951.59;7398725;19;20014;-79
2023/05/17 00:09:16;;;;;;;1.63;0.63;;;;;;;28.74;30.79;100949.09;7394721;19;20022;-79
2023/05/17 00:11:42;;;;;;;4.32;0.75;;;;;;;29.03;30.32;100955.34;7395348;19;20018;-78
2023/05/17 00:14:09;;;;;;;1.42;0.63;;;;;;;29.06;30.01;100943.47;7396254;19;20592;-78
2023/05/17 00:16:35;;;;;;;0.70;0.70;;;;;;;28.25;30.92;100948.75;7399048;19;20018;-78
2023/05/17 00:19:01;;;;;;;9.38;0.63;;;;;;;28.34;30.88;100946.09;7398963;19;20006;-78
2023/05/17 00:21:27;;;;;;;0.47;0.47;;;;;;;28.18;30.84;100944.56;7396224;19;20078;-78
2023/05/17 00:23:53;;;;;;;0.65;0.65;;;;;;;28.32;31.03;100945.91;7396183;19;20365;-78
2023/05/17 00:26:19;;;;;;;0.50;0.50;;;;;;;27.37;31.74;100946.69;7395888;19;20022;-78
2023/05/17 00:28:45;;;;;;;0.70;0.70;;;;;;;24.20;35.48;100955.53;7395269;19;20011;-78
2023/05/17 00:31:13;;;;;;;0.38;0.38;;;;;;;22.54;38.27;100964.25;7392860;19;20034;-78
2023/05/17 00:33:40;;;;;;;0.73;0.73;;;;;;;21.92;39.26;100962.50;7400362;19;20022;-78
2023/05/17 00:36:06;;;;;;;0.20;0.20;;;;;;;21.66;40.09;100959.31;7396531;19;20011;-78
2023/05/17 00:38:32;;;;;;;3.92;0.70;;;;;;;21.09;41.60;100966.59;7401560;19;20565;-78
2023/05/17 00:40:58;;;;;;;1.00;0.98;;;;;;;21.01;42.47;100961.97;7397075;19;20022;-78
2023/05/17 00:43:25;;;;;;;1.02;0.90;;;;;;;21.11;42.32;100966.84;7394450;19;20032;-78
2023/05/17 00:45:52;;;;;;;2.03;0.88;;;;;;;20.92;42.96;100965.13;7393017;19;20018;-79
2023/05/17 00:48:19;;;;;;;13.52;1.73;;;;;;;20.80;43.62;100966.41;7397466;19;20015;-78
2023/05/17 00:50:47;;;;;;;0.90;0.60;;;;;;;19.82;45.75;100968.81;7395615;19;20422;-78
2023/05/17 00:53:15;;;;;;;3.65;2.17;;;;;;;19.04;49.85;100968.59;7395684;19;20042;-79
2023/05/17 00:55:44;;;;;;;3.40;1.13;;;;;;;19.01;51.88;100968.84;7395425;19;20022;-78
2023/05/17 00:58:11;;;;;;;1.05;0.82;;;;;;;19.89;49.49;100973.97;7397293;19;20014;-79
2023/05/17 01:00:39;;;;;;;0.63;0.60;;;;;;;19.13;52.19;100971.22;7392426;19;20021;-79
2023/05/17 01:03:05;;;;;;;2.05;1.42;;;;;;;19.48;51.78;100968.78;7396388;19;20015;-78
2023/05/17 01:05:32;;;;;;;1.13;1.00;;;;;;;19.65;51.59;100974.47;7393895;19;20026;-79
2023/05/17 01:07:58;;;;;;;1.60;0.80;;;;;;;20.16;49.85;100973.22;7393414;19;20468;-79
2023/05/17 01:10:35;;;;;;;1.17;0.50;;;;;;;19.84;51.31;100983.25;7393344;19;20019;-79
2023/05/17 01:13:14;;;;;;;0.70;0.70;;;;;;;19.39;52.49;100983.13;7396734;19;20025;-78
2023/05/17 01:15:52;;;;;;;2.92;0.68;;;;;;;18.57;55.16;100977.88;7397942;19;20022;-79
2023/05/17 01:18:37;;;;;;;0.20;0.20;;;;;;;19.03;55.16;100981.19;7394258;19;20019;-78
2023/05/17 01:21:25;;;;;;;0.82;0.75;;;;;;;19.04;56.42;100977.06;7396764;19;20022;-78
2023/05/17 01:24:02;;;;;;;0.88;0.85;;;;;;;19.25;55.59;100981.25;7392699;19;20010;-79
2023/05/17 01:26:48;;;;;;;2.83;0.90;;;;;;;20.56;52.45;100981.16;7393064;19;20015;-78
2023/05/17 01:29:18;;;;;;;6.57;1.92;;;;;;;19.55;54.79;100982.44;7394868;19;20018;-79
2023/05/17 01:31:44;;;;;;;1.05;1.00;;;;;;;19.49;55.36;100984.44;7395481;19;20385;-78
2023/05/17 01:34:11;;;;;;;1.45;1.35;;;;;;;19.73;54.83;100975.50;7398584;19;20010;-79
2023/05/17 01:36:38;;;;;;;0.32;0.32;;;;;;;20.07;53.13;100984.78;7396743;19;20461;-79
2023/05/17 01:39:04;;;;;;;0.43;0.22;;;;;;;20.57;52.05;100979.88;7393966;19;20017;-79
2023/05/17 01:41:39;;;;;;;4.10;1.25;;;;;;;20.07;53.13;100981.97;7391767;19;20356;-79
2023/05/17 01:44:36;;;;;;;1.05;0.50;;;;;;;20.54;52.93;100974.47;7396327;19;20018;-79
2023/05/17 01:47:18;;;;;;;2.75;0.63;;;;;;;20.61;52.27;100986.03;7396337;19;20031;-79
2023/05/17 01:49:49;;;;;;;1.25;0.70;;;;;;;20.84;52.48;100975.41;7397490;19;20020;-79
2023/05/17 01:52:34;;;;;;;0.60;0.60;;;;;;;21.19;51.84;100977.63;7393521;19;20025;-79
2023/05/17 01:55:09;;;;;;;1.85;1.05;;;;;;;20.78;52.22;100983.94;7393992;19;20028;-78
2023/05/17 01:57:36;;;;;;;1.85;0.57;;;;;;;19.91;55.04;100979.88;7398831;19;20021;-79
2023/05/17 02:00:10;;;;;;;1.13;1.05;;;;;;;20.50;53.72;100985.28;7395923;19;20078;-78
2023/05/17 02:02:44;;;;;;;0.55;0.55;;;;;;;20.49;54.48;100981.69;7394279;19;20006;-78
2023/05/17 02:05:10;;;;;;;0.82;0.82;;;;;;;20.39;54.72;100986.06;7394312;19;20015;-78
2023/05/17 02:07:39;;;;;;;1.45;0.95;;;;;;;20.12;56.48;100989.69;7395200;19;20493;-78
2023/05/17 02:10:06;;;;;;;1.98;0.68;;;;;;;20.64;55.29;100985.00;7397793;19;20025;-78
2023/05/17 02:12:32;;;;;;;0.93;0.47;;;;;;;21.06;54.62;100976.16;7393176;19;20034;-78
2023/05/17 02:14:58;;;;;;;3.30;0.85;;;;;;;21.20;54.51;100979.19;7395420;19;20014;-78
2023/05/17 02:17:25;;;;;;;0.50;0.50;;;;;;;21.34;54.05;100989.41;7395519;19;20019;-78
2023/05/17 02:19:51;;;;;;;0.98;0.85;;;;;;;21.88;53.91;100993.22;7397346;19;20026;-79
2023/05/17 02:22:17;;;;;;;1.30;0.50;;;;;;;21.84;52.80;100992.75;7397584;19;20345;-78
2023/05/17 02:24:43;;;;;;;2.47;1.00;;;;;;;21.60;53.75;101003.94;7390889;19;20014;-78
2023/05/17 02:27:11;;;;;;;3.25;0.90;;;;;;;22.94;50.88;101001.53;7393059;19;20014;-78
2023/05/17 02:29:37;;;;;;;4.18;0.80;;;;;;;22.06;52.36;100998.25;7391561;19;20497;-79
2023/05/17 02:32:05;;;;;;;1.23;1.00;;;;;;;21.80;53.29;101000.72;7395470;19;20031;-78
2023/05/17 02:34:31;;;;;;;0.70;0.70;;;;;;;21.21;55.34;100997.72;7393575;19;20018;-79
2023/05/17 02:36:57;;;;;;;4.22;0.85;;;;;;;21.81;54.08;100999.41;7392409;19;20499;-78
2023/05/17 02:39:23;;;;;;;6.07;0.65;;;;;;;21.19;55.42;100994.63;7390969;19;20019;-78
2023/05/17 02:41:49;;;;;;;1.73;0.65;;;;;;;24.14;49.51;100994.75;7394431;19;20025;-78
2023/05/17 02:44:16;;;;;;;0.63;0.63;;;;;;;22.32;52.84;100992.09;7393779;19;20041;-78
2023/05/17 02:46:42;;;;;;;0.65;0.65;;;;;;;21.82;54.04;101000.97;7391500;19;20056;-78
2023/05/17 02:49:08;;;;;;;2.17;0.57;;;;;;;21.43;55.73;100997.59;7393482;19;20015;-78
2023/05/17 02:51:34;;;;;;;0.50;0.50;;;;;;;21.33;56.43;100999.22;7392560;19;20018;-79
2023/05/17 02:54:00;;;;;;;4.75;1.08;;;;;;;22.69;53.85;100997.19;7390501;19;20026;-79
2023/05/17 02:56:27;;;;;;;1.90;0.50;;;;;;;23.37;51.40;101001.56;7390944;19;20011;-78
2023/05/17 02:58:56;;;;;;;0.65;0.60;;;;;;;25.10;48.15;100996.06;7390132;19;20010;-78
2023/05/17 03:01:22;;;;;;;6.38;0.88;;;;;;;24.83;47.21;101005.94;7390827;19;20014;-78
2023/05/17 03:03:49;;;;;;;3.42;0.77;;;;;;;23.85;48.63;101016.38;7394926;19;20019;-78
2023/05/17 03:06:15;;;;;;;1.13;0.70;;;;;;;23.62;48.88;101009.47;7391774;19;20018;-78
2023/05/17 03:08:42;;;;;;;1.25;1.00;;;;;;;22.42;51.39;101008.25;7391320;19;20366;-78
2023/05/17 03:11:08;;;;;;;0.30;0.30;;;;;;;22.43;52.95;101009.03;7389664;19;20472;-78
2023/05/17 03:13:34;;;;;;;0.32;0.32;;;;;;;22.81;53.02;101001.41;7395442;19;20025;-78
2023/05/17 03:16:01;;;;;;;3.63;0.60;;;;;;;21.70;55.14;101005.19;7395990;19;20038;-78
2023/05/17 03:18:27;;;;;;;2.88;0.95;;;;;;;26.43;45.86;100987.28;7391353;19;20380;-79
2023/05/17 03:20:53;;;;;;;0.57;0.52;;;;;;;22.59;52.74;101006.03;7390746;19;20461;-78
2023/05/17 03:23:20;;;;;;;1.17;0.40;;;;;;;23.70;52.02;101007.53;7392771;19;20078;-79
2023/05/17 03:25:56;;;;;;;0.43;0.43;;;;;;;24.95;48.77;100993.00;7388827;19;20029;-78
2023/05/17 03:28:23;;;;;;;8.20;1.17;;;;;;;26.97;44.86;100984.25;7392811;19;20018;-78
2023/05/17 03:30:49;;;;;;;2.30;0.88;;;;;;;25.25;47.12;100996.25;7388149;19;20015;-78
2023/05/17 03:33:17;;;;;;;0.75;0.75;;;;;;;28.04;42.02;100997.66;7394422;19;20013;-78
2023/05/17 03:35:45;;;;;;;1.48;0.90;;;;;;;25.12;46.04;100993.41;7388264;19;20386;-78
2023/05/17 03:38:12;;;;;;;6.32;2.03;;;;;;;25.07;46.95;100994.31;7392859;19;20018;-78
2023/05/17 03:40:39;;;;;;;14.68;1.63;;;;;;;24.01;49.44;101001.13;7391539;19;20022;-78
2023/05/17 03:43:05;;;;;;;0.73;0.50;;;;;;;24.65;47.98;100992.53;7394355;19;20041;-78
2023/05/17 03:45:32;;;;;;;1.00;0.88;;;;;;;24.62;48.10;100996.47;7388408;19;20019;-79
2023/05/17 03:47:58;;;;;;;3.08;0.60;;;;;;;24.28;48.92;100998.41;7389439;19;20050;-79
2023/05/17 03:50:25;;;;;;;1.45;0.70;;;;;;;24.27;48.94;100994.00;7388647;19;20011;-79
2023/05/17 03:52:52;;;;;;;0.95;0.60;;;;;;;24.02;49.37;100996.97;7395419;19;20366;-79
2023/05/17 03:55:18;;;;;;;2.97;0.95;;;;;;;24.06;49.37;100994.59;7390107;19;20022;-78
2023/05/17 03:57:45;;;;;;;11.50;2.00;;;;;;;25.19;47.56;101000.53;7392005;19;20010;-79
2023/05/17 04:00:11;;;;;;;2.80;0.63;;;;;;;25.25;46.93;100998.34;7389824;19;20022;-79
2023/05/17 04:02:40;;;;;;;1.05;0.95;;;;;;;24.36;48.51;101002.91;7390940;19;20026;-79
2023/05/17 04:05:07;;;;;;;5.40;0.98;;;;;;;23.42;49.97;101012.09;7389703;19;20074;-79
2023/05/17 04:07:34;;;;;;;2.47;0.88;;;;;;;22.68;52.42;101018.34;7388369;19;20011;-79
2023/05/17 04:10:01;;;;;;;5.20;1.10;;;;;;;23.40;51.33;101009.78;7387070;19;20011;-79
2023/05/17 04:12:28;;;;;;;1.27;0.60;;;;;;;23.63;50.54;101002.47;7391572;19;20022;-78
2023/05/17 04:14:55;;;;;;;2.55;1.30;;;;;;;24.20;49.36;101008.88;7393292;19;20082;-79
2023/05/17 04:17:21;;;;;;;0.90;0.60;;;;;;;23.30;51.06;101009.34;7389415;19;20429;-79
2023/05/17 04:19:47;;;;;;;1.17;0.52;;;;;;;23.24;51.13;101002.19;7388849;19;20043;-78
2023/05/17 04:22:13;;;;;;;3.72;1.33;;;;;;;24.04;50.23;101011.44;7389046;19;20445;-79
2023/05/17 04:24:40;;;;;;;1.90;1.05;;;;;;;24.34;49.36;101014.06;7388842;19;20115;-78
2023/05/17 04:27:06;;;;;;;1.98;0.93;;;;;;;23.02;51.96;101013.88;7394727;19;20335;-79
2023/05/17 04:29:33;;;;;;;3.78;1.08;;;;;;;22.91;52.96;101009.06;7387434;19;20026;-79
2023/05/17 04:32:00;;;;;;;3.22;1.05;;;;;;;24.18;49.81;101003.72;7391148;19;20113;-79
2023/05/17 04:34:26;;;;;;;3.35;1.10;;;;;;;23.82;51.26;101008.91;7389734;19;20017;-79
2023/05/17 04:36:54;;;;;;;9.68;1.38;;;;;;;23.15;52.64;101006.19;7388774;19;20331;-79
2023/05/17 04:39:21;;;;;;;2.00;0.55;;;;;;;23.22;52.71;101004.81;7387713;19;20472;-79
2023/05/17 04:41:47;;;;;;;2.08;1.25;;;;;;;23.59;52.32;101010.53;7387996;19;20022;-78
2023/05/17 04:44:16;;;;;;;4.55;1.23;;;;;;;22.54;55.83;101015.34;7390569;19;20070;-79
2023/05/17 04:46:44;;;;;;;1.38;1.08;;;;;;;22.96;55.33;101007.44;7391396;19;20014;-79
2023/05/17 04:49:12;;;;;;;4.38;2.55;;;;;;;22.81;56.33;101007.09;7395976;19;20010;-79
2023/05/17 04:51:38;;;;;;;0.88;0.85;;;;;;;22.74;56.29;101010.56;7397511;19;20479;-79
2023/05/17 04:54:07;;;;;;;0.85;0.68;;;;;;;21.98;60.32;101025.66;7400035;19;20017;-78
2023/05/17 04:56:35;;;;;;;1.67;0.57;;;;;;;22.18;60.66;101021.59;7395911;19;20019;-79
2023/05/17 04:59:02;;;;;;;7.03;1.25;;;;;;;21.56;65.61;101028.97;7395715;19;20473;-79
2023/05/17 05:01:29;;;;;;;5.63;1.45;;;;;;;22.31;63.35;101025.38;7393117;19;20167;-79
2023/05/17 05:03:57;;;;;;;1.23;1.13;;;;;;;22.58;61.73;101027.22;7398563;19;20476;-79
2023/05/17 05:06:24;;;;;;;2.72;1.55;;;;;;;25.17;53.93;101023.91;7396076;19;20019;-79
2023/05/17 05:08:51;;;;;;;8.27;1.98;;;;;;;25.64;52.37;101028.91;7395844;19;20451;-79
2023/05/17 05:11:17;;;;;;;2.38;1.05;;;;;;;25.64;51.55;101031.78;7391852;19;20507;-79
2023/05/17 05:13:43;;;;;;;3.22;0.85;;;;;;;25.15;51.22;101020.06;7399439;19;20014;-79
2023/05/17 05:16:10;;;;;;;0.70;0.70;;;;;;;24.46;53.00;101032.50;7395409;19;20014;-79
2023/05/17 05:18:37;;;;;;;1.98;0.50;;;;;;;24.73;52.96;101030.47;7393912;19;20014;-79
2023/05/17 05:21:03;;;;;;;4.30;1.13;;;;;;;25.41;52.03;101037.16;7392497;19;20480;-79
2023/05/17 05:23:30;;;;;;;2.42;1.05;;;;;;;26.04;50.14;101033.94;7395311;19;20030;-79
2023/05/17 05:25:56;;;;;;;0.63;0.63;;;;;;;26.70;48.32;101037.22;7394039;19;20038;-79
2023/05/17 05:28:22;;;;;;;1.05;0.95;;;;;;;26.65;47.60;101043.84;7391938;19;20478;-79
2023/05/17 05:30:51;;;;;;;2.38;1.15;;;;;;;24.71;51.03;101047.34;7391952;19;20469;-79
2023/05/17 05:33:18;;;;;;;0.98;0.65;;;;;;;24.56;51.86;101047.09;7397068;19;20488;-79
2023/05/17 05:35:46;;;;;;;4.03;1.13;;;;;;;24.65;51.85;101046.66;7396030;19;20048;-79
2023/05/17 05:38:12;;;;;;;1.92;0.88;;;;;;;24.61;51.64;101051.91;7396996;19;20492;-79
2023/05/17 05:40:38;;;;;;;10.38;1.67;;;;;;;24.23;52.77;101061.88;7391401;19;20018;-79
2023/05/17 05:43:05;;;;;;;0.57;0.57;;;;;;;24.41;52.29;101067.53;7394797;19;20026;-78
2023/05/17 05:45:31;;;;;;;3.08;0.85;;;;;;;24.54;52.19;101075.31;7391710;19;20371;-79
2023/05/17 05:48:02;;;;;;;2.22;0.98;;;;;;;24.53;52.19;101073.81;7391382;19;20473;-79
2023/05/17 05:50:29;;;;;;;2.83;1.27;;;;;;;24.43;52.57;101081.25;7391615;19;20026;-79
2023/05/17 05:53:00;;;;;;;1.67;0.45;;;;;;;23.95;52.86;101077.25;7397685;19;20025;-79
2023/05/17 05:55:26;;;;;;;0.77;0.65;;;;;;;24.03;53.00;101078.19;7393567;19;20010;-79
2023/05/17 05:57:53;;;;;;;5.07;1.60;;;;;;;24.20;53.11;101074.34;7390872;19;20086;-79
2023/05/17 06:00:19;;;;;;;3.78;1.15;;;;;;;24.49;52.81;101088.38;7393398;19;20022;-79
2023/05/17 06:02:46;;;;;;;2.88;1.60;;;;;;;24.72;52.45;101088.75;7394697;19;20022;-79
2023/05/17 06:05:12;;;;;;;2.00;1.00;;;;;;;24.90;51.96;101087.94;7394427;19;20612;-79
2023/05/17 06:07:38;;;;;;;3.95;0.82;;;;;;;24.66;52.16;101099.47;7392597;19;20011;-79
2023/05/17 06:10:05;;;;;;;0.85;0.50;;;;;;;24.43;52.34;101098.31;7392700;19;20014;-79
2023/05/17 06:12:31;;;;;;;2.42;1.33;;;;;;;24.17;52.93;101098.22;7396865;19;20330;-79
2023/05/17 06:14:57;;;;;;;3.05;1.15;;;;;;;23.88;54.75;101106.34;7396225;19;20017;-79
2023/05/17 06:17:24;;;;;;;1.95;1.05;;;;;;;23.60;55.16;101108.81;7396843;19;20019;-79
2023/05/17 06:19:51;;;;;;;7.60;1.00;;;;;;;23.86;55.05;101111.03;7392243;19;20469;-79
2023/05/17 06:22:17;;;;;;;0.65;0.47;;;;;;;24.15;55.12;101107.28;7390404;19;20379;-79
2023/05/17 06:24:43;;;;;;;1.08;0.50;;;;;;;24.83;53.01;101122.78;7394727;19;20330;-79
2023/05/17 06:27:09;;;;;;;15.38;1.35;;;;;;;24.18;54.88;101113.97;7394211;19;20023;-79
2023/05/17 06:29:35;;;;;;;0.77;0.40;;;;;;;24.40;53.99;101125.03;7392656;19;20029;-79
2023/05/17 06:32:02;;;;;;;0.52;0.50;;;;;;;24.30;54.49;101121.06;7393844;19;20011;-79
2023/05/17 06:34:28;;;;;;;1.02;0.40;;;;;;;25.09;52.24;101113.50;7396755;19;20011;-79
2023/05/17 06:36:54;;;;;;;4.00;1.00;;;;;;;24.80;52.23;101115.31;7394424;19;20015;-79
2023/05/17 06:39:20;;;;;;;1.23;0.77;;;;;;;25.61;50.68;101112.75;7391620;19;20027;-79
2023/05/17 06:41:46;;;;;;;2.13;0.98;;;;;;;28.06;45.56;101117.38;7391795;19;20028;-79
2023/05/17 06:44:16;;;;;;;2.08;0.68;;;;;;;29.90;42.37;101121.94;7394904;19;20528;-82
2023/05/17 06:46:42;;;;;;;1.08;0.93;;;;;;;29.16;43.46;101133.03;7390678;19;20123;-79
2023/05/17 06:49:08;;;;;;;2.03;0.85;;;;;;;32.52;38.19;101119.28;7396094;19;20037;-79
2023/05/17 06:51:35;;;;;;;9.50;1.17;;;;;;;32.99;36.65;101120.03;7391548;19;20022;-79
2023/05/17 06:54:01;;;;;;;0.50;0.38;;;;;;;32.98;35.81;101124.28;7395217;19;20417;-79
2023/05/17 06:56:27;;;;;;;3.70;1.23;;;;;;;30.86;36.34;101132.72;7396029;19;20081;-79
2023/05/17 06:58:53;;;;;;;1.38;0.77;;;;;;;24.57;47.59;101139.78;7391097;19;20011;-79
2023/05/17 07:01:19;;;;;;;3.88;0.90;;;;;;;29.02;41.77;101126.69;7393564;19;20336;-79
2023/05/17 07:03:45;;;;;;;1.42;0.70;;;;;;;24.56;48.22;101126.84;7395259;19;20015;-79
2023/05/17 07:06:12;;;;;;;0.90;0.40;;;;;;;23.81;50.83;101131.78;7390925;19;20018;-79
2023/05/17 07:08:39;;;;;;;1.05;0.60;;;;;;;23.95;51.82;101134.19;7389510;19;20018;-79
2023/05/17 07:11:08;;;;;;;0.43;0.43;;;;;;;23.03;56.06;101137.56;7388850;19;20046;-78
2023/05/17 07:13:34;;;;;;;4.43;1.10;;;;;;;22.92;56.76;101132.78;7394676;19;20011;-79
2023/05/17 07:16:00;;;;;;;2.83;0.47;;;;;;;22.83;57.93;101135.16;7394907;19;20014;-79
2023/05/17 07:18:27;;;;;;;0.55;0.47;;;;;;;21.74;63.21;101131.19;7395454;19;20353;-79
2023/05/17 07:20:53;;;;;;;0.80;0.45;;;;;;;24.13;56.65;101137.63;7390546;19;20018;-79
2023/05/17 07:23:19;;;;;;;1.65;1.00;;;;;;;24.31;55.48;101143.28;7390966;19;20010;-79
2023/05/17 07:25:45;;;;;;;0.20;0.13;;;;;;;28.50;47.22;101131.03;7394284;19;20022;-79
2023/05/17 07:28:11;;;;;;;1.52;0.52;;;;;;;30.83;40.62;101127.31;7390046;19;20015;-79
2023/05/17 07:30:37;;;;;;;0.57;0.43;;;;;;;31.99;38.27;101133.63;7389650;19;20010;-79
2023/05/17 07:33:03;;;;;;;0.30;0.30;;;;;;;31.25;39.12;101140.38;7393283;19;20014;-79
2023/05/17 07:35:30;;;;;;;5.63;0.68;;;;;;;32.60;37.00;101131.44;7391458;19;20022;-79
2023/05/17 07:37:56;;;;;;;2.28;0.30;;;;;;;33.50;35.37;101131.25;7389656;19;20034;-79
2023/05/17 07:40:22;;;;;;;1.98;0.70;;;;;;;34.04;34.18;101138.28;7392871;19;20018;-79
2023/05/17 07:42:48;;;;;;;0.80;0.40;;;;;;;34.71;32.61;101140.22;7390464;19;20022;-79
2023/05/17 07:45:15;;;;;;;0.68;0.22;;;;;;;35.00;32.10;101135.06;7391507;19;20058;-79
2023/05/17 07:47:41;;;;;;;0.43;0.40;;;;;;;35.08;31.82;101135.66;7391467;19;20523;-80
2023/05/17 07:50:07;;;;;;;0.63;0.57;;;;;;;29.08;36.03;101146.59;7390902;19;20346;-80
2023/05/17 07:52:33;;;;;;;2.53;0.35;;;;;;;27.71;40.33;101154.06;7390921;19;20026;-79
2023/05/17 07:54:59;;;;;;;1.60;0.47;;;;;;;23.18;48.94;101163.53;7390718;19;20022;-79
2023/05/17 07:57:26;;;;;;;9.30;0.35;;;;;;;23.09;53.95;101158.19;7391459;19;20084;-79
2023/05/17 07:59:52;;;;;;;0.73;0.73;;;;;;;22.85;56.74;101158.16;7394240;19;20018;-79
2023/05/17 08:02:18;;;;;;;3.08;1.02;;;;;;;22.30;57.54;101151.56;7388790;19;20476;-79
2023/05/17 08:04:44;;;;;;;2.83;0.40;;;;;;;21.95;59.99;101145.84;7392107;19;20014;-79
2023/05/17 08:07:11;;;;;;;0.95;0.20;;;;;;;21.79;61.28;101161.63;7390808;19;20026;-79
2023/05/17 08:09:39;;;;;;;2.05;0.30;;;;;;;22.14;61.77;101163.78;7388627;19;20596;-80
2023/05/17 08:12:05;;;;;;;0.52;0.30;;;;;;;21.31;66.33;101166.16;7390915;19;20015;-80
2023/05/17 08:14:31;;;;;;;1.35;0.28;;;;;;;21.35;67.56;101163.84;7390653;19;20015;-79
2023/05/17 08:16:57;;;;;;;4.18;1.20;;;;;;;21.93;63.73;101156.94;7389002;19;20349;-79
2023/05/17 08:19:25;;;;;;;0.30;0.30;;;;;;;22.65;61.10;101161.44;7394175;19;20488;-79
2023/05/17 08:21:51;;;;;;;1.10;0.90;;;;;;;22.11;62.16;101158.41;7390669;19;20074;-80
2023/05/17 08:24:17;;;;;;;2.95;0.30;;;;;;;21.86;62.73;101168.84;7396577;19;20022;-79
2023/05/17 08:26:44;;;;;;;0.20;0.20;;;;;;;21.26;68.78;101175.44;7398250;19;20083;-79
2023/05/17 08:29:10;;;;;;;0.73;0.30;;;;;;;21.58;66.98;101168.13;7398921;19;20010;-80
2023/05/17 08:31:36;;;;;;;1.85;0.38;;;;;;;22.06;64.70;101162.03;7401630;19;20032;-80
2023/05/17 08:34:02;;;;;;;1.27;0.52;;;;;;;22.51;62.11;101169.75;7402635;19;20018;-79
2023/05/17 08:36:28;;;;;;;1.10;0.40;;;;;;;23.12;60.85;101155.06;7396970;19;20102;-79
2023/05/17 08:38:55;;;;;;;1.13;0.63;;;;;;;23.76;57.10;101161.06;7400794;19;20385;-79
2023/05/17 08:41:21;;;;;;;0.73;0.52;;;;;;;23.91;55.88;101164.25;7392578;19;20043;-79
2023/05/17 08:43:48;;;;;;;10.18;0.52;;;;;;;22.60;58.49;101177.19;7394748;19;20558;-80
2023/05/17 08:46:17;;;;;;;3.63;0.55;;;;;;;22.84;58.89;101168.75;7397203;19;20095;-80
2023/05/17 08:48:45;;;;;;;1.05;0.50;;;;;;;23.62;58.19;101163.06;7395843;19;20022;-79
2023/05/17 08:51:13;;;;;;;12.63;0.85;;;;;;;23.59;56.34;101163.34;7394304;19;20037;-79
2023/05/17 08:53:41;;;;;;;1.58;0.40;;;;;;;23.34;58.58;101165.47;7397842;19;20018;-80
2023/05/17 08:56:11;;;;;;;1.10;0.85;;;;;;;24.25;57.60;101167.47;7397458;19;20085;-80
2023/05/17 08:58:41;;;;;;;1.27;0.40;;;;;;;25.42;52.59;101159.31;7398166;19;20368;-79
2023/05/17 09:01:08;;;;;;;4.88;0.35;;;;;;;25.07;53.96;101161.75;7394259;19;20022;-79
2023/05/17 09:03:39;;;;;;;3.65;0.60;;;;;;;24.41;56.28;101163.56;7396031;19;20029;-79
2023/05/17 09:06:06;;;;;;;3.65;0.50;;;;;;;24.89;53.95;101157.66;7394243;19;20347;-79
2023/05/17 09:08:32;;;;;;;1.60;0.65;;;;;;;24.51;54.30;101167.59;7396781;19;20452;-79
2023/05/17 09:10:58;;;;;;;2.53;0.32;;;;;;;24.80;53.07;101161.69;7393301;19;20024;-79
2023/05/17 09:13:25;;;;;;;2.63;0.55;;;;;;;25.16;51.12;101170.66;7394557;19;20021;-80
2023/05/17 09:15:53;;;;;;;5.47;0.68;;;;;;;25.76;49.43;101150.81;7397489;19;20025;-79
2023/05/17 09:18:29;;;;;;;1.48;0.40;;;;;;;26.53;47.16;101156.91;7396258;19;20047;-79
2023/05/17 09:20:55;;;;;;;1.75;0.20;;;;;;;25.17;49.50;101157.94;7394140;19;20030;-79
2023/05/17 09:23:22;;;;;;;0.30;0.28;;;;;;;26.16;48.72;101152.31;7395650;19;20018;-80
2023/05/17 09:25:48;;;;;;;1.75;0.30;;;;;;;25.48;49.32;101151.41;7394819;19;20010;-80
2023/05/17 09:28:18;;;;;;;3.33;1.02;;;;;;;24.18;50.07;101163.16;7393590;19;20022;-80
2023/05/17 09:30:48;;;;;;;0.55;0.22;;;;;;;25.87;46.70;101161.25;7393387;19;20066;-79
2023/05/17 09:33:14;;;;;;;0.40;0.17;;;;;;;26.13;45.32;101161.22;7394912;19;20417;-79
2023/05/17 09:35:42;;;;;;;0.68;0.35;;;;;;;26.98;43.85;101145.16;7395676;19;20074;-79
2023/05/17 09:38:12;;;;;;;3.70;0.30;;;;;;;27.42;43.97;101148.91;7396719;19;20070;-79
2023/05/17 09:40:43;;;;;;;0.33;0.20;;;;;;;24.81;46.71;101163.22;7391988;19;20396;-79
2023/05/17 09:43:11;;;;;;;1.75;0.60;;;;;;;24.07;48.62;101158.38;7394264;19;20357;-80
2023/05/17 09:45:38;;;;;;;1.95;0.43;;;;;;;22.81;50.64;101160.50;7393931;19;20018;-79
2023/05/17 09:48:12;;;;;;;2.25;0.52;;;;;;;22.71;51.89;101156.47;7395446;19;20548;-80
2023/05/17 09:50:49;;;;;;;1.38;0.40;;;;;;;24.78;49.08;101143.59;7393378;19;20021;-80
2023/05/17 09:53:28;;;;;;;2.58;0.30;;;;;;;23.95;48.54;101139.13;7395822;19;20018;-87
2023/05/17 09:55:59;;;;;;;0.55;0.10;;;;;;;24.46;49.74;101139.94;7395066;19;20018;-80
2023/05/17 09:58:30;;;;;;;0.30;0.10;;;;;;;23.72;52.06;101144.31;7394965;19;20127;-80
2023/05/17 10:01:01;;;;;;;10.50;0.83;;;;;;;24.00;53.02;101141.88;7390411;19;20003;-80
2023/05/17 10:03:31;;;;;;;2.15;0.25;;;;;;;24.59;50.64;101142.84;7395154;19;20014;-80
2023/05/17 10:06:01;;;;;;;2.08;0.47;;;;;;;25.38;48.40;101136.00;7390957;19;20039;-80
2023/05/17 10:08:28;;;;;;;6.47;0.43;;;;;;;25.19;48.96;101140.25;7392832;19;20011;-80
2023/05/17 10:10:59;;;;;;;3.35;0.47;;;;;;;25.91;45.71;101138.84;7391835;19;20053;-80
2023/05/17 10:13:28;;;;;;;;;;;;;;;28.86;40.72;101121.56;7396227;19;20022;-80
2023/05/17 10:15:55;;;;;;;1.25;0.38;;;;;;;27.42;42.47;101128.88;7393938;19;19918;-80
2023/05/17 10:18:22;;;;;;;0.50;0.30;;;;;;;29.04;40.39;101131.88;7396032;19;20115;-80
2023/05/17 10:20:49;;;;;;;0.65;0.30;;;;;;;26.18;43.66;101131.78;7396399;19;20014;-81
2023/05/17 10:23:16;;;;;;;1.65;0.30;;;;;;;25.12;45.95;101130.28;7390665;19;20014;-79
2023/05/17 10:25:43;;;;;;;2.65;0.55;;;;;;;24.82;44.22;101133.41;7392506;19;20028;-80
2023/05/17 10:28:11;;;;;;;0.13;0.10;;;;;;;24.66;45.82;101133.66;7394236;19;20032;-79
2023/05/17 10:30:38;;;;;;;0.77;0.13;;;;;;;25.49;46.15;101132.94;7390499;19;20477;-79
2023/05/17 10:33:05;;;;;;;3.72;0.80;;;;;;;27.56;41.82;101118.88;7395115;19;20380;-79
2023/05/17 10:35:33;;;;;;;0.08;0.08;;;;;;;26.24;43.55;101118.91;7392983;19;20052;-79
2023/05/17 10:37:59;;;;;;;0.47;0.45;;;;;;;24.98;44.55;101122.25;7394058;19;20396;-80
2023/05/17 10:40:29;;;;;;;0.75;0.28;;;;;;;24.64;45.40;101124.91;7389269;19;20368;-80
2023/05/17 10:42:56;;;;;;;0.55;0.30;;;;;;;24.86;44.41;101129.47;7394132;19;20023;-80
2023/05/17 10:45:24;;;;;;;0.30;0.20;;;;;;;24.63;45.17;101123.34;7397816;19;20014;-80
2023/05/17 10:47:51;;;;;;;3.58;0.40;;;;;;;26.20;42.60;101117.72;7394743;19;20501;-80
2023/05/17 10:50:22;;;;;;;0.35;0.30;;;;;;;25.76;41.96;101118.66;7391959;19;20374;-80
2023/05/17 10:52:50;;;;;;;1.77;0.77;;;;;;;25.17;44.24;101122.94;7395263;19;20019;-80
2023/05/17 10:55:21;;;;;;;0.60;0.35;;;;;;;26.03;42.68;101120.16;7392038;19;20487;-80
2023/05/17 10:58:17;;;;;;;1.05;0.20;;;;;;;24.68;44.22;101119.66;7397219;19;20461;-80
2023/05/17 11:00:47;;;;;;;6.53;0.40;;;;;;;25.74;44.47;101124.94;7390642;19;20011;-79
2023/05/17 11:03:24;;;;;;;2.10;0.47;;;;;;;26.48;42.93;101120.66;7392628;19;20011;-79
2023/05/17 11:06:08;;;;;;;1.20;0.43;;;;;;;26.20;41.32;101114.84;7394785;19;20350;-79
2023/05/17 11:08:35;;;;;;;1.23;0.65;;;;;;;26.62;41.05;101107.81;7391852;19;20074;-79
2023/05/17 11:11:16;;;;;;;0.30;0.20;;;;;;;26.27;42.81;101117.78;7390602;19;20018;-79
2023/05/17 11:13:54;;;;;;;1.10;0.57;;;;;;;27.88;39.60;101104.88;7390196;19;20022;-79
2023/05/17 11:16:22;;;;;;;0.47;0.30;;;;;;;29.09;38.18;101099.34;7393176;19;20038;-79
2023/05/17 11:18:50;;;;;;;2.08;0.30;;;;;;;27.32;40.60;101096.38;7393792;19;20038;-79
2023/05/17 11:21:17;;;;;;;1.35;0.38;;;;;;;29.76;37.04;101092.69;7391160;19;20011;-80
2023/05/17 11:23:44;;;;;;;1.17;1.08;;;;;;;30.51;35.56;101105.16;7391343;19;20420;-79
2023/05/17 11:26:21;;;;;;;6.20;0.30;;;;;;;30.22;36.25;101103.94;7389820;19;20011;-79
2023/05/17 11:28:47;;;;;;;0.88;0.50;;;;;;;31.92;33.90;101097.03;7392310;19;20022;-79